Time;durP1;ratioP1;P1;durP2;ratioP2;P2;SDS_P1;SDS_P2;PMS_P1;PMS_P2;Temp;Humidity;BMP_temperature;BMP_pressure;BME280_temperature;BME280_humidity;BME280_pressure;Samples;Min_cycle;Max_cycle;Signal;HPM_P1;HPM_P2
2024/03/05 00:02:07;;;;;;;41.85;21.75;;;;;;;8.80;91.18;99033.94;5050491;28;20021;-27
2024/03/05 00:04:33;;;;;;;40.95;21.55;;;;;;;8.96;90.75;99032.66;5050522;28;20020;-27
2024/03/05 00:06:58;;;;;;;42.20;21.63;;;;;;;8.81;91.52;99029.44;5050595;28;20028;-26
2024/03/05 00:09:24;;;;;;;41.33;20.15;;;;;;;8.51;92.70;99026.47;5050203;28;20112;-27
2024/03/05 00:11:49;;;;;;;41.40;22.52;;;;;;;8.67;93.78;99020.72;5050598;28;20021;-27
2024/03/05 00:14:14;;;;;;;45.22;22.90;;;;;;;8.66;93.59;99020.91;5050598;28;20483;-27
2024/03/05 00:16:40;;;;;;;43.08;21.92;;;;;;;8.66;94.15;99020.91;5050409;28;20025;-27
2024/03/05 00:19:06;;;;;;;42.22;21.80;;;;;;;8.63;93.27;99018.72;5050481;28;20166;-27
2024/03/05 00:21:31;;;;;;;43.88;21.77;;;;;;;8.53;94.04;99011.16;5050590;28;20025;-27
2024/03/05 00:23:57;;;;;;;42.55;23.00;;;;;;;8.68;92.60;99003.78;5050786;28;20076;-27
2024/03/05 00:26:25;;;;;;;45.03;21.13;;;;;;;8.77;91.77;99001.72;5050457;28;20049;-27
2024/03/05 00:28:51;;;;;;;45.28;22.80;;;;;;;8.73;93.00;98989.88;5050378;28;20516;-27
2024/03/05 00:31:16;;;;;;;44.70;22.23;;;;;;;9.04;90.68;98970.56;5050021;28;20021;-27
2024/03/05 00:33:42;;;;;;;45.53;21.90;;;;;;;8.99;91.40;98989.78;5049991;28;20031;-27
2024/03/05 00:36:08;;;;;;;44.90;22.48;;;;;;;8.69;92.42;99002.75;5050116;28;20108;-27
2024/03/05 00:38:34;;;;;;;39.90;21.35;;;;;;;8.65;92.89;98995.44;5050470;28;20056;-27
2024/03/05 00:41:00;;;;;;;40.00;21.63;;;;;;;8.67;92.96;98988.09;5050162;28;20385;-27
2024/03/05 00:43:25;;;;;;;44.15;21.90;;;;;;;8.80;93.03;98986.19;5050213;28;20397;-27
2024/03/05 00:45:51;;;;;;;45.10;21.77;;;;;;;8.68;93.13;98987.03;5050270;28;20021;-27
2024/03/05 00:48:16;;;;;;;41.88;21.88;;;;;;;8.83;92.46;98982.28;5049941;28;20040;-27
2024/03/05 00:50:42;;;;;;;42.80;21.08;;;;;;;8.68;92.35;98974.63;5034221;28;20097;-27
2024/03/05 00:53:07;;;;;;;43.05;22.20;;;;;;;8.63;92.85;98965.66;5029895;28;20033;-26
2024/03/05 00:55:33;;;;;;;43.72;22.15;;;;;;;8.67;92.91;98972.97;5029971;28;20538;-27
2024/03/05 00:57:59;;;;;;;40.50;20.20;;;;;;;8.84;91.79;98970.66;5029902;28;20505;-27
2024/03/05 01:00:24;;;;;;;40.88;20.90;;;;;;;8.65;92.75;98968.91;5032365;28;20036;-27
2024/03/05 01:02:52;;;;;;;38.28;20.67;;;;;;;8.70;92.53;98972.56;5033683;28;20079;-26
2024/03/05 01:05:18;;;;;;;44.03;21.48;;;;;;;8.52;93.13;98969.75;5033592;28;20079;-27
2024/03/05 01:07:44;;;;;;;44.05;20.20;;;;;;;8.57;93.19;98962.00;5033813;28;20033;-27
2024/03/05 01:10:09;;;;;;;38.55;19.60;;;;;;;8.24;94.46;98968.16;5033787;28;20022;-27
2024/03/05 01:12:35;;;;;;;39.33;20.05;;;;;;;8.46;93.73;98968.75;5034087;28;20052;-27
2024/03/05 01:15:01;;;;;;;42.92;19.42;;;;;;;8.29;93.97;98971.00;5033936;28;20037;-27
2024/03/05 01:17:27;;;;;;;43.08;21.23;;;;;;;8.47;93.31;98966.91;5033603;28;20023;-26
2024/03/05 01:19:53;;;;;;;41.40;19.95;;;;;;;8.46;93.77;98965.31;5033785;28;20335;-26
2024/03/05 01:22:19;;;;;;;37.45;20.08;;;;;;;8.41;94.14;98957.91;5033485;28;20362;-26
2024/03/05 01:24:44;;;;;;;41.63;22.13;;;;;;;8.57;92.52;98954.84;5033153;28;20025;-27
2024/03/05 01:27:09;;;;;;;41.72;21.08;;;;;;;8.77;92.51;98952.09;5033391;28;20029;-27
2024/03/05 01:29:35;;;;;;;42.10;22.65;;;;;;;8.64;92.47;98944.22;5033275;28;20026;-27
2024/03/05 01:32:01;;;;;;;41.92;21.05;;;;;;;8.31;94.38;98953.06;5033460;28;20036;-26
2024/03/05 01:34:28;;;;;;;45.95;22.17;;;;;;;8.44;93.39;98946.94;5033116;28;20037;-25
2024/03/05 01:36:57;;;;;;;41.40;21.67;;;;;;;8.50;92.80;98954.06;5033142;28;20110;-25
2024/03/05 01:39:27;;;;;;;45.53;21.70;;;;;;;8.30;93.64;98945.31;5033114;28;20406;-26
2024/03/05 01:41:53;;;;;;;42.28;21.20;;;;;;;8.40;93.11;98956.31;5033361;28;20037;-26
2024/03/05 01:44:21;;;;;;;39.88;20.48;;;;;;;8.32;93.35;98951.22;5033218;28;20087;-26
2024/03/05 01:46:48;;;;;;;43.20;21.77;;;;;;;8.50;92.67;98943.44;5033386;28;20029;-26
2024/03/05 01:49:14;;;;;;;40.83;21.15;;;;;;;8.54;91.47;98942.00;5033037;28;20076;-26
2024/03/05 01:51:41;;;;;;;45.63;21.60;;;;;;;8.41;91.95;98949.97;5032760;28;20033;-26
2024/03/05 01:54:06;;;;;;;41.95;20.75;;;;;;;7.91;95.06;98952.31;5033005;28;20464;-36
2024/03/05 01:56:32;;;;;;;47.58;19.80;;;;;;;7.72;96.24;98946.81;5033246;28;20025;-39
2024/03/05 01:58:59;;;;;;;42.20;20.70;;;;;;;7.86;95.81;98947.63;5033290;28;20031;-36
2024/03/05 02:01:25;;;;;;;42.67;21.35;;;;;;;8.01;95.61;98948.25;5033518;28;20044;-38
2024/03/05 02:03:53;;;;;;;46.15;21.00;;;;;;;7.81;95.27;98945.59;5033370;28;20026;-38
2024/03/05 02:06:21;;;;;;;43.78;20.98;;;;;;;8.02;94.99;98949.06;5042708;28;20029;-39
2024/03/05 02:08:47;;;;;;;40.35;19.90;;;;;;;7.79;95.10;98955.59;5053072;28;20094;-36
2024/03/05 02:11:14;;;;;;;41.65;20.48;;;;;;;7.71;95.74;98945.22;5052903;28;20029;-39
2024/03/05 02:13:40;;;;;;;45.70;21.75;;;;;;;7.61;96.72;98947.44;5053017;28;20100;-39
2024/03/05 02:16:06;;;;;;;49.40;22.67;;;;;;;7.87;95.75;98935.22;5052835;28;20029;-39
2024/03/05 02:18:32;;;;;;;47.25;20.65;;;;;;;7.93;94.76;98929.09;5052632;28;20078;-39
2024/03/05 02:21:05;;;;;;;46.55;22.50;;;;;;;7.67;95.84;98943.97;5052528;28;20072;-39
2024/03/05 02:23:31;;;;;;;45.30;22.00;;;;;;;7.72;96.13;98943.38;5037551;28;20026;-39
2024/03/05 02:25:56;;;;;;;50.47;22.58;;;;;;;7.70;95.55;98946.22;5032359;28;20053;-37
2024/03/05 02:28:22;;;;;;;45.67;21.83;;;;;;;7.76;95.46;98937.44;5032669;28;20033;-40
2024/03/05 02:30:48;;;;;;;49.33;22.08;;;;;;;8.24;93.97;98936.34;5032677;28;20025;-37
2024/03/05 02:33:15;;;;;;;47.88;23.40;;;;;;;8.19;94.26;98938.81;5032738;28;20478;-39
2024/03/05 02:35:41;;;;;;;56.70;24.65;;;;;;;8.36;92.67;98944.50;5043055;28;20048;-38
2024/03/05 02:38:06;;;;;;;57.78;25.80;;;;;;;7.90;94.95;98946.22;5052081;28;20110;-36
2024/03/05 02:40:32;;;;;;;56.13;25.48;;;;;;;7.91;95.55;98939.06;5051613;28;20489;-37
2024/03/05 02:42:58;;;;;;;66.65;27.75;;;;;;;7.65;97.18;98946.00;5036930;28;20033;-36
2024/03/05 02:45:24;;;;;;;68.05;27.17;;;;;;;7.26;99.33;98942.31;5032255;28;20025;-39
2024/03/05 02:47:49;;;;;;;71.53;27.60;;;;;;;7.40;99.77;98943.13;5040517;28;20029;-37
2024/03/05 02:50:14;;;;;;;68.82;26.77;;;;;;;7.23;99.96;98940.91;5042561;28;20519;-39
2024/03/05 02:52:40;;;;;;;74.32;28.00;;;;;;;7.23;100.00;98934.78;5032095;28;20116;-37
2024/03/05 02:55:12;;;;;;;74.68;28.25;;;;;;;7.21;100.00;98928.88;5031926;28;20454;-39
2024/03/05 02:57:42;;;;;;;86.13;32.10;;;;;;;7.39;100.00;98926.44;5031734;28;20090;-39
2024/03/05 03:00:26;;;;;;;;;;;;;;;7.34;100.00;98928.06;5032379;28;20033;-38
2024/03/05 03:02:52;;;;;;;80.43;29.67;;;;;;;7.15;100.00;98937.63;5038256;28;19908;-39
2024/03/05 03:05:21;;;;;;;87.30;29.73;;;;;;;6.83;100.00;98927.59;5051751;28;20032;-38
2024/03/05 03:07:47;;;;;;;82.20;30.50;;;;;;;6.68;100.00;98931.38;5032114;28;20091;-40
2024/03/05 03:10:13;;;;;;;93.57;30.13;;;;;;;6.82;100.00;98928.59;5031749;28;20264;-39
2024/03/05 03:12:42;;;;;;;107.90;33.15;;;;;;;6.89;100.00;98922.47;5031844;28;20029;-39
2024/03/05 03:15:08;;;;;;;99.90;32.05;;;;;;;6.81;100.00;98926.13;5031666;28;20033;-26
2024/03/05 03:17:37;;;;;;;92.53;30.52;;;;;;;6.78;100.00;98927.34;5031425;28;20493;-25
2024/03/05 03:20:03;;;;;;;105.27;32.20;;;;;;;6.56;100.00;98936.41;5031503;28;20473;-26
2024/03/05 03:22:30;;;;;;;103.05;30.25;;;;;;;6.75;100.00;98927.72;5031446;28;20264;-26
2024/03/05 03:24:57;;;;;;;98.95;30.33;;;;;;;6.67;100.00;98914.69;5031606;28;20029;-26
2024/03/05 03:27:23;;;;;;;98.45;30.20;;;;;;;6.75;100.00;98926.94;5034647;28;20033;-27
2024/03/05 03:29:49;;;;;;;105.05;31.27;;;;;;;6.63;100.00;98921.41;5050060;28;20029;-27
2024/03/05 03:32:15;;;;;;;117.70;32.58;;;;;;;6.77;100.00;98915.13;5046666;28;20017;-27
2024/03/05 03:34:40;;;;;;;111.10;32.00;;;;;;;6.68;100.00;98915.50;5044408;28;20013;-27
2024/03/05 03:37:09;;;;;;;104.75;32.28;;;;;;;6.73;100.00;98928.97;5038128;28;20029;-27
2024/03/05 03:39:35;;;;;;;111.88;33.38;;;;;;;6.93;100.00;98916.63;5030046;28;20422;-26
2024/03/05 03:42:01;;;;;;;123.07;34.53;;;;;;;7.08;100.00;98920.91;5036049;28;20155;-27
2024/03/05 03:44:27;;;;;;;106.75;32.97;;;;;;;6.85;100.00;98927.34;5041207;28;20112;-27
2024/03/05 03:46:52;;;;;;;123.93;32.92;;;;;;;6.82;100.00;98930.41;5034831;28;20044;-27
2024/03/05 03:49:21;;;;;;;122.10;34.08;;;;;;;6.86;100.00;98923.72;5051117;28;20043;-27
2024/03/05 03:51:47;;;;;;;125.93;33.17;;;;;;;6.85;100.00;98936.13;5051262;28;20028;-27
2024/03/05 03:54:12;;;;;;;120.63;32.97;;;;;;;7.05;100.00;98930.88;5050802;28;20112;-27
2024/03/05 03:56:38;;;;;;;108.75;32.13;;;;;;;6.91;100.00;98928.38;5051015;28;20056;-27
2024/03/05 03:59:03;;;;;;;112.65;31.92;;;;;;;6.94;100.00;98946.53;5051195;28;20370;-27
2024/03/05 04:01:31;;;;;;;141.98;36.42;;;;;;;7.25;100.00;98938.03;5050478;28;20029;-26
2024/03/05 04:03:58;;;;;;;144.55;39.05;;;;;;;7.15;100.00;98932.31;5050671;28;20021;-26
2024/03/05 04:06:24;;;;;;;121.30;34.33;;;;;;;6.82;100.00;98930.41;5050900;28;20025;-28
2024/03/05 04:08:50;;;;;;;133.02;35.95;;;;;;;7.05;100.00;98930.06;5051091;28;20466;-26
2024/03/05 04:11:15;;;;;;;124.95;33.72;;;;;;;6.98;100.00;98918.66;5050820;28;20021;-27
2024/03/05 04:13:43;;;;;;;132.73;35.70;;;;;;;6.90;100.00;98942.66;5050607;28;20048;-26
2024/03/05 04:16:09;;;;;;;126.15;35.33;;;;;;;6.79;100.00;98936.09;5050509;28;20032;-26
2024/03/05 04:18:34;;;;;;;117.80;33.33;;;;;;;6.80;100.00;98927.16;5050824;28;20024;-26
2024/03/05 04:21:00;;;;;;;126.22;33.35;;;;;;;6.76;100.00;98933.84;5050698;28;20342;-27
2024/03/05 04:23:27;;;;;;;123.65;34.58;;;;;;;6.82;100.00;98930.41;5050678;28;20033;-26
2024/03/05 04:25:57;;;;;;;132.32;34.05;;;;;;;6.99;100.00;98929.03;5050422;28;20041;-26
2024/03/05 04:28:24;;;;;;;122.88;34.10;;;;;;;6.99;100.00;98923.75;5050687;28;20108;-26
2024/03/05 04:30:51;;;;;;;127.18;33.10;;;;;;;6.92;100.00;98925.56;5050198;28;20032;-26
2024/03/05 04:33:20;;;;;;;148.77;36.38;;;;;;;7.02;100.00;98928.63;5050664;28;20442;-26
2024/03/05 04:35:45;;;;;;;151.60;36.72;;;;;;;7.08;100.00;98927.00;5053795;28;20031;-27
2024/03/05 04:38:10;;;;;;;169.13;38.60;;;;;;;7.31;100.00;98921.38;5054446;28;20025;-26
2024/03/05 04:40:37;;;;;;;149.93;38.55;;;;;;;7.36;100.00;98926.84;5054816;28;20126;-27
2024/03/05 04:43:03;;;;;;;155.38;37.67;;;;;;;7.39;100.00;98923.81;5054008;28;20111;-27
2024/03/05 04:45:29;;;;;;;135.35;36.50;;;;;;;7.36;100.00;98920.75;5053460;28;20044;-27
2024/03/05 04:47:54;;;;;;;131.80;34.95;;;;;;;7.46;100.00;98928.28;5053528;28;20028;-26
2024/03/05 04:50:20;;;;;;;135.13;35.85;;;;;;;7.31;100.00;98925.81;5053391;28;20052;-26
2024/03/05 04:52:46;;;;;;;166.13;39.50;;;;;;;7.41;100.00;98919.13;5047144;28;20234;-26
2024/03/05 04:55:12;;;;;;;150.55;37.25;;;;;;;7.42;100.00;98925.22;5033532;28;20029;-26
2024/03/05 04:57:38;;;;;;;136.98;36.55;;;;;;;7.36;100.00;98929.50;5033517;28;20021;-27
2024/03/05 05:00:19;;;;;;;148.13;36.75;;;;;;;7.16;100.00;98929.47;5033846;28;20036;-26
2024/03/05 05:02:44;;;;;;;;;;;;;;;7.50;100.00;98919.75;5035241;28;20041;-26
2024/03/05 05:05:10;;;;;;;170.05;38.63;;;;;;;7.52;100.00;98922.16;5034596;28;19909;-26
2024/03/05 05:07:35;;;;;;;159.15;37.78;;;;;;;7.48;100.00;98932.34;5034741;28;20029;-28
2024/03/05 05:10:00;;;;;;;175.85;38.80;;;;;;;7.54;100.00;98936.00;5034573;28;20029;-28
2024/03/05 05:12:26;;;;;;;173.80;39.47;;;;;;;7.58;100.00;98932.78;5034430;28;20398;-26
2024/03/05 05:14:51;;;;;;;144.82;35.78;;;;;;;7.51;100.00;98928.50;5034038;28;20026;-27
2024/03/05 05:17:16;;;;;;;173.77;41.80;;;;;;;7.61;100.00;98931.53;5034529;28;20025;-27
2024/03/05 05:19:42;;;;;;;188.20;40.72;;;;;;;7.63;100.00;98921.56;5034496;28;20492;-27
2024/03/05 05:22:07;;;;;;;170.60;39.88;;;;;;;7.36;100.00;98929.50;5034650;28;20330;-27
2024/03/05 05:24:34;;;;;;;171.38;41.85;;;;;;;7.58;100.00;98924.03;5034607;28;20088;-27
2024/03/05 05:27:00;;;;;;;157.90;39.22;;;;;;;7.46;100.00;98934.38;5034119;28;20057;-26
2024/03/05 05:29:25;;;;;;;153.90;38.42;;;;;;;7.39;100.00;98936.22;5034195;28;20592;-26
2024/03/05 05:31:50;;;;;;;159.50;38.30;;;;;;;7.89;100.00;98925.22;5034000;28;20021;-27
2024/03/05 05:34:16;;;;;;;152.70;36.85;;;;;;;7.81;100.00;98932.34;5034283;28;20029;-27
2024/03/05 05:36:41;;;;;;;173.23;38.25;;;;;;;7.78;100.00;98931.94;5033487;28;20028;-27
2024/03/05 05:39:07;;;;;;;187.73;40.10;;;;;;;7.89;100.00;98939.28;5033962;28;20033;-26
2024/03/05 05:41:32;;;;;;;158.52;35.88;;;;;;;7.87;100.00;98929.91;5033916;28;20032;-27
2024/03/05 05:43:58;;;;;;;173.60;38.33;;;;;;;7.73;100.00;98916.69;5034058;28;20025;-27
2024/03/05 05:46:24;;;;;;;156.35;38.50;;;;;;;7.57;100.00;98925.03;5045141;28;20029;-27
2024/03/05 05:48:51;;;;;;;158.85;36.28;;;;;;;7.85;100.00;98924.81;5053916;28;20537;-27
2024/03/05 05:51:18;;;;;;;163.80;38.40;;;;;;;7.59;100.00;98931.75;5053708;28;20021;-28
2024/03/05 05:53:46;;;;;;;153.80;36.05;;;;;;;7.51;100.00;98939.91;5052772;28;20465;-28
2024/03/05 05:56:14;;;;;;;157.20;37.17;;;;;;;7.57;100.00;98932.97;5053034;28;20401;-27
2024/03/05 05:58:39;;;;;;;181.27;39.75;;;;;;;7.80;100.00;98928.06;5053372;28;20013;-27
2024/03/05 06:01:09;;;;;;;152.85;36.97;;;;;;;7.61;100.00;98927.06;5053194;28;20295;-28
2024/03/05 06:03:37;;;;;;;;;;;;;;;7.78;100.00;98930.09;5050529;28;20413;-27
2024/03/05 06:06:04;;;;;;;165.25;37.17;;;;;;;7.74;100.00;98930.72;5053181;28;19958;-29
2024/03/05 06:08:29;;;;;;;168.55;35.80;;;;;;;7.75;100.00;98916.44;5053262;28;20115;-27
2024/03/05 06:10:57;;;;;;;173.43;37.40;;;;;;;7.82;100.00;98915.44;5052822;28;20101;-27
2024/03/05 06:13:24;;;;;;;153.40;34.63;;;;;;;7.71;100.00;98916.06;5053458;28;20021;-27
2024/03/05 06:15:50;;;;;;;162.50;36.35;;;;;;;7.74;100.00;98920.13;5043945;28;20033;-28
2024/03/05 06:18:16;;;;;;;157.73;37.20;;;;;;;7.74;100.00;98918.28;5048365;28;20431;-29
2024/03/05 06:20:42;;;;;;;161.23;35.08;;;;;;;7.70;100.00;98921.56;5052474;28;20032;-27
2024/03/05 06:23:07;;;;;;;173.18;38.58;;;;;;;7.80;100.00;98904.22;5052543;28;20028;-28
2024/03/05 06:25:33;;;;;;;166.93;36.78;;;;;;;7.70;100.00;98905.69;5052407;28;20076;-29
2024/03/05 06:27:59;;;;;;;170.93;35.13;;;;;;;7.72;100.00;98911.59;5052481;28;20025;-27
2024/03/05 06:30:25;;;;;;;165.07;36.45;;;;;;;7.60;100.00;98908.75;5052000;28;20088;-27
2024/03/05 06:32:51;;;;;;;163.35;35.53;;;;;;;7.58;100.00;98910.78;5052454;28;20036;-27
2024/03/05 06:35:22;;;;;;;170.00;36.38;;;;;;;7.70;100.00;98914.44;5052221;28;20025;-27
2024/03/05 06:37:48;;;;;;;190.50;39.05;;;;;;;7.75;100.00;98922.59;5052293;28;20031;-28
2024/03/05 06:40:19;;;;;;;181.05;36.50;;;;;;;7.71;100.00;98915.25;5052185;28;20033;-28
2024/03/05 06:42:51;;;;;;;184.93;37.67;;;;;;;7.80;100.00;98921.97;5052322;28;20098;-27
2024/03/05 06:45:30;;;;;;;188.70;39.15;;;;;;;7.87;100.00;98920.13;5052327;28;20523;-29
2024/03/05 06:48:00;;;;;;;200.05;37.33;;;;;;;7.82;100.00;98925.22;5052702;28;20135;-27
2024/03/05 06:50:36;;;;;;;177.77;37.28;;;;;;;7.70;100.00;98916.28;5052243;28;20029;-27
2024/03/05 06:58:34;;;;;;;182.23;37.83;;;;;;;7.92;100.00;98919.50;5051734;28;20108;-26
2024/03/05 07:01:06;;;;;;;165.57;36.72;;;;;;;8.06;100.00;98921.13;5052093;28;20453;-28
2024/03/05 07:03:34;;;;;;;180.93;37.15;;;;;;;7.92;100.00;98920.31;5052304;28;20436;-26
2024/03/05 07:06:00;;;;;;;160.40;35.63;;;;;;;7.95;100.00;98916.44;5051663;28;20574;-27
2024/03/05 07:08:25;;;;;;;168.98;35.95;;;;;;;7.95;100.00;98919.91;5051912;28;20469;-27
2024/03/05 07:10:50;;;;;;;171.00;36.35;;;;;;;7.96;100.00;98918.09;5051899;28;20016;-27
2024/03/05 07:13:16;;;;;;;177.65;36.00;;;;;;;8.06;100.00;98922.97;5051873;28;20120;-27
2024/03/05 07:15:41;;;;;;;169.95;37.33;;;;;;;8.05;100.00;98924.78;5051777;28;20020;-27
2024/03/05 07:18:07;;;;;;;186.73;38.10;;;;;;;8.17;100.00;98919.66;5051914;28;20729;-28
2024/03/05 07:20:33;;;;;;;173.30;36.65;;;;;;;8.27;100.00;98920.03;5052031;28;20021;-27
2024/03/05 07:22:59;;;;;;;174.98;36.95;;;;;;;8.34;100.00;98925.31;5051544;28;20130;-27
2024/03/05 07:25:24;;;;;;;169.52;36.28;;;;;;;8.20;100.00;98924.53;5051676;28;20168;-26
2024/03/05 07:27:50;;;;;;;161.75;35.78;;;;;;;8.29;100.00;98922.50;5051448;28;20430;-27
2024/03/05 07:30:20;;;;;;;146.50;32.75;;;;;;;8.01;100.00;98926.22;5052108;28;20049;-27
2024/03/05 07:32:47;;;;;;;159.73;35.00;;;;;;;8.01;100.00;98923.56;5051680;28;20028;-27
2024/03/05 07:35:17;;;;;;;141.93;32.92;;;;;;;7.78;100.00;98913.41;5051768;28;20029;-28
2024/03/05 07:37:46;;;;;;;157.85;34.33;;;;;;;8.23;100.00;98932.88;5051524;28;20028;-28
2024/03/05 07:40:18;;;;;;;162.45;34.90;;;;;;;8.21;100.00;98931.47;5051491;28;20037;-28
2024/03/05 07:42:48;;;;;;;149.57;33.78;;;;;;;8.08;100.00;98937.63;5034318;28;20049;-27
2024/03/05 07:45:15;;;;;;;;;;;;;;;8.22;100.00;98935.75;5032420;28;20036;-27
2024/03/05 07:47:40;;;;;;;143.25;33.58;;;;;;;7.95;100.00;98930.50;5031718;28;19909;-27
2024/03/05 07:50:11;;;;;;;157.63;35.90;;;;;;;8.10;100.00;98932.91;5031624;28;20029;-29
2024/03/05 07:52:36;;;;;;;152.00;33.28;;;;;;;8.21;100.00;98945.53;5031578;28;20033;-27
2024/03/05 07:55:03;;;;;;;155.73;36.22;;;;;;;8.29;100.00;98943.69;5031274;28;20040;-29
2024/03/05 07:57:29;;;;;;;149.10;35.28;;;;;;;8.39;100.00;98944.88;5031766;28;20583;-27
2024/03/05 07:59:54;;;;;;;133.02;34.13;;;;;;;8.23;100.00;98943.50;5031444;28;20029;-26
2024/03/05 08:02:20;;;;;;;142.88;34.17;;;;;;;8.21;100.00;98936.78;5031555;28;20029;-28
2024/03/05 08:04:45;;;;;;;143.85;35.55;;;;;;;8.46;100.00;98938.78;5031538;28;20029;-26
2024/03/05 08:07:11;;;;;;;136.15;33.90;;;;;;;8.36;100.00;98937.34;5031580;28;20032;-27
2024/03/05 08:09:36;;;;;;;141.70;33.40;;;;;;;8.59;100.00;98952.81;5031132;28;20033;-27
2024/03/05 08:12:02;;;;;;;142.93;33.55;;;;;;;8.55;100.00;98945.50;5031151;28;20386;-26
2024/03/05 08:14:28;;;;;;;130.45;33.03;;;;;;;8.40;100.00;98946.50;5031495;28;20036;-27
2024/03/05 08:16:54;;;;;;;125.45;31.75;;;;;;;8.32;100.00;98944.09;5031435;28;20382;-27
2024/03/05 08:19:19;;;;;;;130.60;32.88;;;;;;;8.54;100.00;98951.81;5030776;28;20025;-27
2024/03/05 08:21:45;;;;;;;113.75;30.30;;;;;;;8.43;100.00;98945.31;5030297;28;20517;-28
2024/03/05 08:24:11;;;;;;;123.28;31.85;;;;;;;8.47;100.00;98945.69;5030365;28;20025;-27
2024/03/05 08:26:36;;;;;;;116.10;31.73;;;;;;;8.30;100.00;98932.06;5030307;28;20054;-30
2024/03/05 08:29:02;;;;;;;116.45;32.60;;;;;;;8.39;100.00;98950.16;5030399;28;20031;-29
2024/03/05 08:31:28;;;;;;;118.22;32.90;;;;;;;8.52;100.00;98951.19;5030403;28;20084;-26
2024/03/05 08:33:53;;;;;;;108.43;30.02;;;;;;;8.55;100.00;98938.34;5030168;28;20032;-27
2024/03/05 08:36:21;;;;;;;115.68;32.03;;;;;;;8.51;100.00;98926.53;5030113;28;20058;-27
2024/03/05 08:38:47;;;;;;;108.80;30.42;;;;;;;8.61;100.00;98945.44;5030120;28;20033;-27
2024/03/05 08:41:12;;;;;;;112.53;33.50;;;;;;;8.61;99.82;98952.59;5029986;28;20117;-27
2024/03/05 08:43:37;;;;;;;102.25;32.58;;;;;;;8.64;99.99;98943.41;5030369;28;20059;-31
2024/03/05 08:46:04;;;;;;;106.60;32.83;;;;;;;8.68;99.55;98957.88;5030199;28;20079;-28
2024/03/05 08:48:30;;;;;;;106.22;33.20;;;;;;;8.68;99.79;98950.75;5029855;28;20033;-27
2024/03/05 08:50:58;;;;;;;107.68;31.13;;;;;;;8.71;99.67;98952.97;5030152;28;20029;-27
2024/03/05 08:53:24;;;;;;;107.40;30.90;;;;;;;8.78;99.22;98960.91;5030242;28;20099;-28
2024/03/05 08:55:52;;;;;;;114.65;31.83;;;;;;;8.56;100.00;98945.25;5030216;28;20025;-26
2024/03/05 08:58:18;;;;;;;96.53;29.45;;;;;;;8.74;98.39;98957.84;5029609;28;20409;-26
2024/03/05 09:00:43;;;;;;;95.88;30.02;;;;;;;8.46;100.00;98957.34;5030020;28;20037;-28
2024/03/05 09:03:10;;;;;;;105.65;30.60;;;;;;;8.49;100.00;98955.09;5029684;28;20466;-28
2024/03/05 09:05:35;;;;;;;103.03;31.35;;;;;;;8.42;100.00;98959.59;5030105;28;20037;-27
2024/03/05 09:08:01;;;;;;;110.15;30.60;;;;;;;8.43;100.00;98961.22;5029740;28;20033;-27
2024/03/05 09:10:26;;;;;;;103.32;29.67;;;;;;;8.49;100.00;98964.88;5029906;28;20104;-29
2024/03/05 09:12:52;;;;;;;101.97;30.08;;;;;;;8.54;100.00;98963.22;5029902;28;20032;-27
2024/03/05 09:15:17;;;;;;;108.50;32.60;;;;;;;8.78;99.98;98964.38;5030032;28;20061;-27
2024/03/05 09:17:43;;;;;;;100.03;30.92;;;;;;;8.56;100.00;98965.66;5029790;28;20022;-29
2024/03/05 09:20:14;;;;;;;104.57;30.20;;;;;;;8.79;98.91;98973.94;5030068;28;20056;-27
2024/03/05 09:22:44;;;;;;;99.90;30.10;;;;;;;8.85;98.59;98969.63;5033005;28;20454;-29
2024/03/05 09:25:12;;;;;;;110.13;31.75;;;;;;;8.94;98.25;98981.63;5033295;28;20499;-28
2024/03/05 09:27:37;;;;;;;100.50;29.67;;;;;;;8.67;98.35;98974.81;5033199;28;20413;-28
2024/03/05 09:30:05;;;;;;;107.95;31.30;;;;;;;8.59;100.00;98976.69;5033026;28;20495;-29
2024/03/05 09:32:31;;;;;;;102.97;30.42;;;;;;;8.65;99.47;98964.41;5033506;28;20029;-28
2024/03/05 09:34:56;;;;;;;107.43;30.45;;;;;;;8.73;98.93;98976.63;5033080;28;20056;-28
2024/03/05 09:37:23;;;;;;;106.13;30.75;;;;;;;8.58;100.00;98980.34;5033239;28;20053;-28
2024/03/05 09:39:50;;;;;;;108.82;30.20;;;;;;;8.50;100.00;98977.94;5034257;28;20025;-26
2024/03/05 09:42:18;;;;;;;107.15;30.08;;;;;;;8.76;99.55;98979.69;5033997;28;20061;-28
2024/03/05 09:44:45;;;;;;;105.80;29.83;;;;;;;8.83;100.00;98974.34;5033733;28;20052;-28
2024/03/05 09:47:12;;;;;;;98.78;29.17;;;;;;;8.72;99.41;98981.13;5033790;28;20034;-28
2024/03/05 09:49:42;;;;;;;111.35;32.83;;;;;;;9.14;100.00;98976.25;5033966;28;20079;-28
2024/03/05 09:52:09;;;;;;;114.13;33.85;;;;;;;9.69;98.52;98980.16;5033687;28;20025;-28
2024/03/05 09:54:36;;;;;;;91.65;30.23;;;;;;;10.14;97.13;98980.78;5033572;28;20029;-28
2024/03/05 09:57:04;;;;;;;73.35;26.50;;;;;;;10.15;92.65;98990.41;5033770;28;20025;-30
2024/03/05 09:59:30;;;;;;;63.95;23.98;;;;;;;10.32;93.53;98981.91;5033184;28;20034;-26
2024/03/05 10:01:55;;;;;;;65.53;24.35;;;;;;;10.82;90.93;98994.25;5033345;28;20037;-29
2024/03/05 10:04:26;;;;;;;68.70;24.35;;;;;;;10.20;88.55;98987.09;5033267;28;20387;-29
2024/03/05 10:06:52;;;;;;;71.75;24.75;;;;;;;10.02;90.76;99000.34;5034109;28;20037;-27
2024/03/05 10:09:18;;;;;;;71.63;25.23;;;;;;;10.35;89.15;98987.56;5032459;28;20033;-30
2024/03/05 10:11:44;;;;;;;74.97;25.83;;;;;;;10.45;88.13;98991.56;5033704;28;20476;-27
2024/03/05 10:14:11;;;;;;;77.90;25.08;;;;;;;11.00;86.13;98988.88;5033549;28;20032;-28
2024/03/05 10:16:40;;;;;;;67.05;24.92;;;;;;;10.58;85.51;98978.13;5033162;28;20037;-28
2024/03/05 10:19:15;;;;;;;66.93;24.58;;;;;;;11.14;84.17;98981.56;5033160;28;20104;-27
2024/03/05 10:21:41;;;;;;;63.15;23.33;;;;;;;10.88;82.88;98983.50;5031542;28;20029;-28
2024/03/05 10:24:07;;;;;;;64.82;23.88;;;;;;;10.72;84.39;98981.47;5031732;28;20029;-31
2024/03/05 10:26:34;;;;;;;61.72;22.65;;;;;;;10.50;84.72;98984.56;5031389;28;20056;-30
2024/03/05 10:29:11;;;;;;;61.78;22.92;;;;;;;10.24;86.57;98974.97;5031656;28;20032;-29
2024/03/05 10:31:40;;;;;;;61.63;22.98;;;;;;;10.45;87.16;98989.75;5030216;28;20429;-27
2024/03/05 10:34:06;;;;;;;56.42;24.55;;;;;;;11.05;82.89;98991.69;5031148;28;20496;-29
2024/03/05 10:36:35;;;;;;;59.47;23.13;;;;;;;11.05;82.72;98988.22;5032572;28;20053;-27
2024/03/05 10:39:01;;;;;;;59.78;24.13;;;;;;;10.69;83.87;98971.25;5032741;28;20035;-28
2024/03/05 10:41:40;;;;;;;62.00;24.48;;;;;;;11.21;82.72;98981.44;5036448;28;20021;-30
2024/03/05 10:44:07;;;;;;;66.40;24.63;;;;;;;11.28;81.93;98979.50;5052859;28;20052;-28
2024/03/05 10:46:33;;;;;;;64.68;26.00;;;;;;;11.17;81.37;98983.75;5052601;28;20029;-27
2024/03/05 10:49:05;;;;;;;63.58;24.65;;;;;;;11.04;82.07;98990.09;5052317;28;20075;-29
2024/03/05 10:51:35;;;;;;;71.22;25.88;;;;;;;10.92;83.56;98987.34;5052864;28;20028;-27
2024/03/05 10:54:04;;;;;;;71.28;26.10;;;;;;;10.70;83.54;98976.38;5052450;28;20503;-27
2024/03/05 10:56:30;;;;;;;67.90;25.20;;;;;;;10.79;84.67;98976.84;5052645;28;20475;-27
2024/03/05 11:01:40;;;;;;;74.10;28.50;;;;;;;11.00;82.96;98988.06;5052407;28;20036;-29
2024/03/05 11:04:10;;;;;;;68.63;26.52;;;;;;;10.60;85.13;98986.69;5052403;28;20469;-27
2024/03/05 11:06:36;;;;;;;70.45;25.88;;;;;;;10.64;84.77;98979.94;5051866;28;20478;-27
2024/03/05 11:09:02;;;;;;;65.43;25.10;;;;;;;10.69;84.81;98985.38;5052513;28;20021;-29
2024/03/05 11:11:29;;;;;;;66.55;24.25;;;;;;;10.42;86.09;98978.72;5052542;28;20439;-30
2024/03/05 11:13:58;;;;;;;63.42;24.60;;;;;;;10.61;85.19;98972.38;5051940;28;20469;-27
2024/03/05 11:16:26;;;;;;;59.38;23.02;;;;;;;11.02;83.12;98978.81;5052178;28;20024;-29
2024/03/05 11:18:51;;;;;;;63.13;23.35;;;;;;;10.54;85.08;98969.78;5052149;28;20036;-29
2024/03/05 11:21:17;;;;;;;58.45;23.13;;;;;;;10.68;85.98;98970.47;5051845;28;20033;-26
2024/03/05 11:23:51;;;;;;;62.17;23.17;;;;;;;11.16;83.39;98974.16;5052099;28;20078;-27